sensor_id;sensor_type;location;lat;lon;timestamp;P1;durP1;ratioP1;P2;durP2;ratioP2
4646;SDS011;2336;47.822;7.564;2022-11-20T00:01:19;4.13;;;3.93;;
4646;SDS011;2336;47.822;7.564;2022-11-20T00:03:47;4.70;;;4.40;;
4646;SDS011;2336;47.822;7.564;2022-11-20T00:06:14;5.00;;;4.70;;
4646;SDS011;2336;47.822;7.564;2022-11-20T00:08:43;4.80;;;4.60;;
4646;SDS011;2336;47.822;7.564;2022-11-20T00:11:10;4.70;;;4.40;;
4646;SDS011;2336;47.822;7.564;2022-11-20T00:13:38;7.83;;;5.70;;
4646;SDS011;2336;47.822;7.564;2022-11-20T00:16:07;4.27;;;4.07;;
4646;SDS011;2336;47.822;7.564;2022-11-20T00:18:35;5.10;;;4.80;;
4646;SDS011;2336;47.822;7.564;2022-11-20T00:21:02;5.00;;;4.80;;
4646;SDS011;2336;47.822;7.564;2022-11-20T00:23:30;5.90;;;5.60;;
4646;SDS011;2336;47.822;7.564;2022-11-20T00:26:00;5.00;;;4.60;;
4646;SDS011;2336;47.822;7.564;2022-11-20T00:28:27;5.83;;;5.43;;
4646;SDS011;2336;47.822;7.564;2022-11-20T00:30:59;5.43;;;5.03;;
4646;SDS011;2336;47.822;7.564;2022-11-20T00:33:28;4.70;;;4.40;;
4646;SDS011;2336;47.822;7.564;2022-11-20T00:35:58;4.57;;;4.37;;
4646;SDS011;2336;47.822;7.564;2022-11-20T00:38:25;5.77;;;5.30;;
4646;SDS011;2336;47.822;7.564;2022-11-20T00:40:54;4.80;;;4.57;;
4646;SDS011;2336;47.822;7.564;2022-11-20T00:43:22;5.53;;;5.13;;
4646;SDS011;2336;47.822;7.564;2022-11-20T00:45:48;4.70;;;4.40;;
4646;SDS011;2336;47.822;7.564;2022-11-20T00:48:15;5.53;;;5.17;;
4646;SDS011;2336;47.822;7.564;2022-11-20T00:50:43;5.03;;;4.63;;
4646;SDS011;2336;47.822;7.564;2022-11-20T00:53:10;4.13;;;4.03;;
4646;SDS011;2336;47.822;7.564;2022-11-20T00:55:37;4.97;;;4.50;;
4646;SDS011;2336;47.822;7.564;2022-11-20T00:58:03;4.63;;;4.30;;
4646;SDS011;2336;47.822;7.564;2022-11-20T01:00:30;4.43;;;4.23;;
4646;SDS011;2336;47.822;7.564;2022-11-20T01:02:57;4.90;;;4.20;;
4646;SDS011;2336;47.822;7.564;2022-11-20T01:05:24;5.03;;;4.63;;
4646;SDS011;2336;47.822;7.564;2022-11-20T01:07:52;4.27;;;3.97;;
4646;SDS011;2336;47.822;7.564;2022-11-20T01:10:19;4.60;;;4.20;;
4646;SDS011;2336;47.822;7.564;2022-11-20T01:12:45;5.03;;;4.40;;
4646;SDS011;2336;47.822;7.564;2022-11-20T01:15:33;4.90;;;4.60;;
4646;SDS011;2336;47.822;7.564;2022-11-20T01:18:01;4.70;;;4.40;;
4646;SDS011;2336;47.822;7.564;2022-11-20T01:20:28;4.90;;;4.60;;
4646;SDS011;2336;47.822;7.564;2022-11-20T01:22:56;6.27;;;4.70;;
4646;SDS011;2336;47.822;7.564;2022-11-20T01:25:23;4.37;;;4.10;;
4646;SDS011;2336;47.822;7.564;2022-11-20T01:27:49;4.93;;;4.20;;
4646;SDS011;2336;47.822;7.564;2022-11-20T01:30:16;4.80;;;4.50;;
4646;SDS011;2336;47.822;7.564;2022-11-20T01:32:43;3.70;;;3.40;;
4646;SDS011;2336;47.822;7.564;2022-11-20T01:35:10;4.90;;;4.50;;
4646;SDS011;2336;47.822;7.564;2022-11-20T01:37:36;3.73;;;3.53;;
4646;SDS011;2336;47.822;7.564;2022-11-20T01:40:05;4.33;;;4.13;;
4646;SDS011;2336;47.822;7.564;2022-11-20T01:42:32;4.13;;;3.93;;
4646;SDS011;2336;47.822;7.564;2022-11-20T01:48:24;4.33;;;4.10;;
4646;SDS011;2336;47.822;7.564;2022-11-20T01:50:53;4.50;;;4.20;;
4646;SDS011;2336;47.822;7.564;2022-11-20T01:53:21;7.93;;;3.23;;
4646;SDS011;2336;47.822;7.564;2022-11-20T01:55:55;5.67;;;4.00;;
4646;SDS011;2336;47.822;7.564;2022-11-20T01:58:26;4.57;;;4.20;;
4646;SDS011;2336;47.822;7.564;2022-11-20T02:00:56;7.53;;;4.37;;
4646;SDS011;2336;47.822;7.564;2022-11-20T02:03:22;3.90;;;3.70;;
4646;SDS011;2336;47.822;7.564;2022-11-20T02:05:51;5.30;;;3.73;;
4646;SDS011;2336;47.822;7.564;2022-11-20T02:08:21;4.33;;;4.13;;
4646;SDS011;2336;47.822;7.564;2022-11-20T02:10:49;4.33;;;4.03;;
4646;SDS011;2336;47.822;7.564;2022-11-20T02:13:17;4.33;;;3.67;;
4646;SDS011;2336;47.822;7.564;2022-11-20T02:16:01;4.57;;;4.13;;
4646;SDS011;2336;47.822;7.564;2022-11-20T02:18:29;5.10;;;4.70;;
4646;SDS011;2336;47.822;7.564;2022-11-20T02:20:58;4.77;;;4.40;;
4646;SDS011;2336;47.822;7.564;2022-11-20T02:23:30;4.37;;;4.07;;
4646;SDS011;2336;47.822;7.564;2022-11-20T02:26:04;3.90;;;3.60;;
4646;SDS011;2336;47.822;7.564;2022-11-20T02:28:34;4.30;;;4.10;;
4646;SDS011;2336;47.822;7.564;2022-11-20T02:31:01;4.50;;;4.13;;
4646;SDS011;2336;47.822;7.564;2022-11-20T02:33:27;5.93;;;4.30;;
4646;SDS011;2336;47.822;7.564;2022-11-20T02:35:54;5.10;;;4.70;;
4646;SDS011;2336;47.822;7.564;2022-11-20T02:38:21;3.97;;;3.77;;
4646;SDS011;2336;47.822;7.564;2022-11-20T02:40:48;3.83;;;3.70;;
4646;SDS011;2336;47.822;7.564;2022-11-20T02:43:16;4.70;;;4.40;;
4646;SDS011;2336;47.822;7.564;2022-11-20T02:45:43;4.57;;;4.20;;
4646;SDS011;2336;47.822;7.564;2022-11-20T02:48:10;5.20;;;4.77;;
4646;SDS011;2336;47.822;7.564;2022-11-20T02:50:37;4.90;;;4.60;;
4646;SDS011;2336;47.822;7.564;2022-11-20T02:53:05;4.77;;;4.43;;
4646;SDS011;2336;47.822;7.564;2022-11-20T02:55:32;4.70;;;4.40;;
4646;SDS011;2336;47.822;7.564;2022-11-20T02:57:59;5.67;;;5.37;;
4646;SDS011;2336;47.822;7.564;2022-11-20T03:00:27;4.80;;;4.40;;
4646;SDS011;2336;47.822;7.564;2022-11-20T03:02:53;4.73;;;4.33;;
4646;SDS011;2336;47.822;7.564;2022-11-20T03:05:20;4.83;;;4.53;;
4646;SDS011;2336;47.822;7.564;2022-11-20T03:07:47;4.77;;;4.47;;
4646;SDS011;2336;47.822;7.564;2022-11-20T03:10:14;7.17;;;5.83;;
4646;SDS011;2336;47.822;7.564;2022-11-20T03:12:40;5.03;;;4.70;;
4646;SDS011;2336;47.822;7.564;2022-11-20T03:15:08;5.03;;;4.53;;
4646;SDS011;2336;47.822;7.564;2022-11-20T03:17:37;4.87;;;4.57;;
4646;SDS011;2336;47.822;7.564;2022-11-20T03:20:04;5.40;;;5.00;;
4646;SDS011;2336;47.822;7.564;2022-11-20T03:22:31;5.10;;;4.70;;
4646;SDS011;2336;47.822;7.564;2022-11-20T03:24:58;6.17;;;5.60;;
4646;SDS011;2336;47.822;7.564;2022-11-20T03:27:25;5.03;;;4.70;;
4646;SDS011;2336;47.822;7.564;2022-11-20T03:29:52;7.47;;;5.30;;
4646;SDS011;2336;47.822;7.564;2022-11-20T03:32:18;6.20;;;5.70;;
4646;SDS011;2336;47.822;7.564;2022-11-20T03:34:46;5.60;;;5.30;;
4646;SDS011;2336;47.822;7.564;2022-11-20T03:37:13;6.33;;;4.83;;
4646;SDS011;2336;47.822;7.564;2022-11-20T03:39:40;5.90;;;5.50;;
4646;SDS011;2336;47.822;7.564;2022-11-20T03:42:07;6.30;;;5.63;;
4646;SDS011;2336;47.822;7.564;2022-11-20T03:44:54;6.57;;;5.10;;
4646;SDS011;2336;47.822;7.564;2022-11-20T03:47:21;5.13;;;4.83;;
4646;SDS011;2336;47.822;7.564;2022-11-20T03:49:49;6.03;;;5.53;;
4646;SDS011;2336;47.822;7.564;2022-11-20T03:52:16;4.90;;;4.50;;
4646;SDS011;2336;47.822;7.564;2022-11-20T03:54:43;5.20;;;4.90;;
4646;SDS011;2336;47.822;7.564;2022-11-20T03:57:10;5.53;;;4.47;;
4646;SDS011;2336;47.822;7.564;2022-11-20T03:59:36;4.80;;;4.50;;
4646;SDS011;2336;47.822;7.564;2022-11-20T04:02:03;4.53;;;4.23;;
4646;SDS011;2336;47.822;7.564;2022-11-20T04:04:30;4.77;;;4.37;;
4646;SDS011;2336;47.822;7.564;2022-11-20T04:06:58;4.73;;;4.40;;
4646;SDS011;2336;47.822;7.564;2022-11-20T04:09:25;5.50;;;5.10;;
4646;SDS011;2336;47.822;7.564;2022-11-20T04:11:52;6.20;;;4.83;;
4646;SDS011;2336;47.822;7.564;2022-11-20T04:14:18;4.47;;;4.20;;
4646;SDS011;2336;47.822;7.564;2022-11-20T04:16:45;7.10;;;5.53;;
4646;SDS011;2336;47.822;7.564;2022-11-20T04:19:12;6.47;;;6.00;;
4646;SDS011;2336;47.822;7.564;2022-11-20T04:21:41;5.87;;;5.40;;
4646;SDS011;2336;47.822;7.564;2022-11-20T04:24:10;6.00;;;5.30;;
4646;SDS011;2336;47.822;7.564;2022-11-20T04:26:37;5.33;;;4.93;;
4646;SDS011;2336;47.822;7.564;2022-11-20T04:29:04;5.20;;;4.80;;
4646;SDS011;2336;47.822;7.564;2022-11-20T04:31:32;5.27;;;4.77;;
4646;SDS011;2336;47.822;7.564;2022-11-20T04:34:00;5.10;;;4.80;;
4646;SDS011;2336;47.822;7.564;2022-11-20T04:36:28;5.50;;;5.10;;
4646;SDS011;2336;47.822;7.564;2022-11-20T04:38:56;5.10;;;4.80;;
4646;SDS011;2336;47.822;7.564;2022-11-20T04:41:25;5.23;;;4.73;;
4646;SDS011;2336;47.822;7.564;2022-11-20T04:43:54;5.53;;;4.90;;
4646;SDS011;2336;47.822;7.564;2022-11-20T04:46:24;4.73;;;4.50;;
4646;SDS011;2336;47.822;7.564;2022-11-20T04:48:52;4.50;;;4.30;;
4646;SDS011;2336;47.822;7.564;2022-11-20T04:51:19;4.33;;;4.03;;
4646;SDS011;2336;47.822;7.564;2022-11-20T04:53:46;4.13;;;3.83;;
4646;SDS011;2336;47.822;7.564;2022-11-20T04:56:13;4.10;;;3.80;;
4646;SDS011;2336;47.822;7.564;2022-11-20T04:58:42;3.37;;;3.20;;
4646;SDS011;2336;47.822;7.564;2022-11-20T05:01:10;3.77;;;3.53;;
4646;SDS011;2336;47.822;7.564;2022-11-20T05:03:37;4.30;;;3.20;;
4646;SDS011;2336;47.822;7.564;2022-11-20T05:06:05;3.40;;;3.20;;
4646;SDS011;2336;47.822;7.564;2022-11-20T05:08:33;3.03;;;2.83;;
4646;SDS011;2336;47.822;7.564;2022-11-20T05:11:01;3.70;;;2.83;;
4646;SDS011;2336;47.822;7.564;2022-11-20T05:13:28;3.13;;;3.03;;
4646;SDS011;2336;47.822;7.564;2022-11-20T05:16:01;3.03;;;2.73;;
4646;SDS011;2336;47.822;7.564;2022-11-20T05:18:29;2.90;;;2.80;;
4646;SDS011;2336;47.822;7.564;2022-11-20T05:20:56;2.70;;;2.60;;
4646;SDS011;2336;47.822;7.564;2022-11-20T05:23:24;2.57;;;2.47;;
4646;SDS011;2336;47.822;7.564;2022-11-20T05:25:51;2.60;;;2.57;;
4646;SDS011;2336;47.822;7.564;2022-11-20T05:28:19;2.93;;;2.83;;
4646;SDS011;2336;47.822;7.564;2022-11-20T05:30:46;2.70;;;2.60;;
4646;SDS011;2336;47.822;7.564;2022-11-20T05:33:14;2.80;;;2.70;;
4646;SDS011;2336;47.822;7.564;2022-11-20T05:35:41;2.30;;;2.20;;
4646;SDS011;2336;47.822;7.564;2022-11-20T05:38:08;2.67;;;2.47;;
4646;SDS011;2336;47.822;7.564;2022-11-20T05:40:36;2.43;;;2.30;;
4646;SDS011;2336;47.822;7.564;2022-11-20T05:43:03;2.43;;;2.33;;
4646;SDS011;2336;47.822;7.564;2022-11-20T05:45:29;2.20;;;2.10;;
4646;SDS011;2336;47.822;7.564;2022-11-20T05:47:57;2.90;;;2.67;;
4646;SDS011;2336;47.822;7.564;2022-11-20T05:50:27;2.33;;;2.10;;
4646;SDS011;2336;47.822;7.564;2022-11-20T05:52:54;3.00;;;2.90;;
4646;SDS011;2336;47.822;7.564;2022-11-20T05:55:21;2.30;;;2.30;;
4646;SDS011;2336;47.822;7.564;2022-11-20T05:57:47;3.67;;;2.20;;
4646;SDS011;2336;47.822;7.564;2022-11-20T06:00:15;2.30;;;2.17;;
4646;SDS011;2336;47.822;7.564;2022-11-20T06:02:42;5.40;;;2.17;;
4646;SDS011;2336;47.822;7.564;2022-11-20T06:05:08;2.20;;;2.20;;
4646;SDS011;2336;47.822;7.564;2022-11-20T06:07:37;4.33;;;1.70;;
4646;SDS011;2336;47.822;7.564;2022-11-20T06:10:04;2.30;;;2.27;;
4646;SDS011;2336;47.822;7.564;2022-11-20T06:12:31;2.37;;;2.27;;
4646;SDS011;2336;47.822;7.564;2022-11-20T06:14:58;3.50;;;2.23;;
4646;SDS011;2336;47.822;7.564;2022-11-20T06:17:25;1.87;;;1.77;;
4646;SDS011;2336;47.822;7.564;2022-11-20T06:19:52;2.40;;;2.30;;
4646;SDS011;2336;47.822;7.564;2022-11-20T06:22:19;2.37;;;2.27;;
4646;SDS011;2336;47.822;7.564;2022-11-20T06:24:47;2.17;;;2.03;;
4646;SDS011;2336;47.822;7.564;2022-11-20T06:27:14;2.43;;;2.33;;
4646;SDS011;2336;47.822;7.564;2022-11-20T06:29:41;2.33;;;2.20;;
4646;SDS011;2336;47.822;7.564;2022-11-20T06:32:09;1.97;;;1.87;;
4646;SDS011;2336;47.822;7.564;2022-11-20T06:34:36;1.83;;;1.80;;
4646;SDS011;2336;47.822;7.564;2022-11-20T06:37:02;2.20;;;2.00;;
4646;SDS011;2336;47.822;7.564;2022-11-20T06:39:29;1.80;;;1.70;;
4646;SDS011;2336;47.822;7.564;2022-11-20T06:41:57;2.00;;;1.90;;
4646;SDS011;2336;47.822;7.564;2022-11-20T06:44:24;1.87;;;1.77;;
4646;SDS011;2336;47.822;7.564;2022-11-20T06:46:51;6.20;;;1.60;;
4646;SDS011;2336;47.822;7.564;2022-11-20T06:49:18;1.77;;;1.67;;
4646;SDS011;2336;47.822;7.564;2022-11-20T06:51:45;1.87;;;1.80;;
4646;SDS011;2336;47.822;7.564;2022-11-20T06:54:12;1.80;;;1.70;;
4646;SDS011;2336;47.822;7.564;2022-11-20T06:56:39;2.40;;;2.20;;
4646;SDS011;2336;47.822;7.564;2022-11-20T06:59:08;2.57;;;2.50;;
4646;SDS011;2336;47.822;7.564;2022-11-20T07:01:34;1.80;;;1.70;;
4646;SDS011;2336;47.822;7.564;2022-11-20T07:04:01;1.27;;;1.27;;
4646;SDS011;2336;47.822;7.564;2022-11-20T07:06:28;1.57;;;1.57;;
4646;SDS011;2336;47.822;7.564;2022-11-20T07:08:55;1.87;;;1.87;;
4646;SDS011;2336;47.822;7.564;2022-11-20T07:11:22;1.53;;;1.53;;
4646;SDS011;2336;47.822;7.564;2022-11-20T07:13:49;5.80;;;1.60;;
4646;SDS011;2336;47.822;7.564;2022-11-20T07:16:18;5.53;;;5.23;;
4646;SDS011;2336;47.822;7.564;2022-11-20T07:18:45;3.07;;;2.97;;
4646;SDS011;2336;47.822;7.564;2022-11-20T07:21:11;2.40;;;2.30;;
4646;SDS011;2336;47.822;7.564;2022-11-20T07:23:38;5.40;;;4.90;;
4646;SDS011;2336;47.822;7.564;2022-11-20T07:26:05;4.17;;;4.07;;
4646;SDS011;2336;47.822;7.564;2022-11-20T07:28:33;2.70;;;2.60;;
4646;SDS011;2336;47.822;7.564;2022-11-20T07:31:01;2.83;;;2.70;;
4646;SDS011;2336;47.822;7.564;2022-11-20T07:33:30;3.10;;;3.00;;
4646;SDS011;2336;47.822;7.564;2022-11-20T07:35:58;4.33;;;4.03;;
4646;SDS011;2336;47.822;7.564;2022-11-20T07:38:25;2.53;;;2.43;;
4646;SDS011;2336;47.822;7.564;2022-11-20T07:40:53;4.30;;;4.10;;
4646;SDS011;2336;47.822;7.564;2022-11-20T07:43:20;7.20;;;6.60;;
4646;SDS011;2336;47.822;7.564;2022-11-20T07:45:47;7.10;;;6.60;;
4646;SDS011;2336;47.822;7.564;2022-11-20T07:48:14;6.77;;;6.27;;
4646;SDS011;2336;47.822;7.564;2022-11-20T07:50:42;4.90;;;4.63;;
4646;SDS011;2336;47.822;7.564;2022-11-20T07:53:09;5.50;;;5.20;;
4646;SDS011;2336;47.822;7.564;2022-11-20T07:55:37;3.47;;;3.37;;
4646;SDS011;2336;47.822;7.564;2022-11-20T07:58:04;2.97;;;2.77;;
4646;SDS011;2336;47.822;7.564;2022-11-20T08:00:31;4.37;;;4.10;;
4646;SDS011;2336;47.822;7.564;2022-11-20T08:02:58;4.70;;;4.20;;
4646;SDS011;2336;47.822;7.564;2022-11-20T08:05:25;3.90;;;3.60;;
4646;SDS011;2336;47.822;7.564;2022-11-20T08:07:53;3.57;;;3.37;;
4646;SDS011;2336;47.822;7.564;2022-11-20T08:10:20;2.27;;;2.17;;
4646;SDS011;2336;47.822;7.564;2022-11-20T08:12:47;2.60;;;2.50;;
4646;SDS011;2336;47.822;7.564;2022-11-20T08:15:32;2.80;;;2.70;;
4646;SDS011;2336;47.822;7.564;2022-11-20T08:17:59;2.60;;;2.50;;
4646;SDS011;2336;47.822;7.564;2022-11-20T08:20:27;3.53;;;2.20;;
4646;SDS011;2336;47.822;7.564;2022-11-20T08:22:58;1.50;;;1.40;;
4646;SDS011;2336;47.822;7.564;2022-11-20T08:25:26;1.70;;;1.70;;
4646;SDS011;2336;47.822;7.564;2022-11-20T08:27:53;5.13;;;1.93;;
4646;SDS011;2336;47.822;7.564;2022-11-20T08:30:20;2.13;;;2.13;;
4646;SDS011;2336;47.822;7.564;2022-11-20T08:32:46;2.90;;;2.67;;
4646;SDS011;2336;47.822;7.564;2022-11-20T08:35:13;2.17;;;2.13;;
4646;SDS011;2336;47.822;7.564;2022-11-20T08:37:40;2.20;;;2.00;;
4646;SDS011;2336;47.822;7.564;2022-11-20T08:40:10;2.43;;;2.23;;
4646;SDS011;2336;47.822;7.564;2022-11-20T08:42:45;2.60;;;1.80;;
4646;SDS011;2336;47.822;7.564;2022-11-20T08:45:12;1.70;;;1.70;;
4646;SDS011;2336;47.822;7.564;2022-11-20T08:47:39;2.20;;;2.10;;
4646;SDS011;2336;47.822;7.564;2022-11-20T08:50:07;2.30;;;2.20;;
4646;SDS011;2336;47.822;7.564;2022-11-20T08:52:34;1.90;;;1.80;;
4646;SDS011;2336;47.822;7.564;2022-11-20T08:55:01;3.00;;;2.70;;
4646;SDS011;2336;47.822;7.564;2022-11-20T08:57:32;2.37;;;2.20;;
4646;SDS011;2336;47.822;7.564;2022-11-20T08:59:58;2.33;;;2.13;;
4646;SDS011;2336;47.822;7.564;2022-11-20T09:02:25;2.27;;;2.17;;
4646;SDS011;2336;47.822;7.564;2022-11-20T09:04:53;2.13;;;2.03;;
4646;SDS011;2336;47.822;7.564;2022-11-20T09:07:19;2.50;;;2.37;;
4646;SDS011;2336;47.822;7.564;2022-11-20T09:09:46;2.23;;;2.23;;
4646;SDS011;2336;47.822;7.564;2022-11-20T09:12:13;2.53;;;2.43;;
4646;SDS011;2336;47.822;7.564;2022-11-20T09:14:42;2.53;;;2.43;;
4646;SDS011;2336;47.822;7.564;2022-11-20T09:17:09;2.87;;;2.73;;
4646;SDS011;2336;47.822;7.564;2022-11-20T09:19:38;4.17;;;2.30;;
4646;SDS011;2336;47.822;7.564;2022-11-20T09:22:06;2.90;;;2.80;;
4646;SDS011;2336;47.822;7.564;2022-11-20T09:24:33;3.63;;;2.30;;
4646;SDS011;2336;47.822;7.564;2022-11-20T09:27:03;3.30;;;3.10;;
4646;SDS011;2336;47.822;7.564;2022-11-20T09:29:30;3.23;;;3.03;;
4646;SDS011;2336;47.822;7.564;2022-11-20T09:31:59;3.30;;;3.00;;
4646;SDS011;2336;47.822;7.564;2022-11-20T09:34:25;3.00;;;2.80;;
4646;SDS011;2336;47.822;7.564;2022-11-20T09:36:53;3.63;;;3.50;;
4646;SDS011;2336;47.822;7.564;2022-11-20T09:39:20;2.73;;;2.63;;
4646;SDS011;2336;47.822;7.564;2022-11-20T09:41:51;3.77;;;3.57;;
4646;SDS011;2336;47.822;7.564;2022-11-20T09:44:44;3.83;;;3.63;;
4646;SDS011;2336;47.822;7.564;2022-11-20T09:47:26;4.50;;;4.10;;
4646;SDS011;2336;47.822;7.564;2022-11-20T09:50:14;3.40;;;3.30;;
4646;SDS011;2336;47.822;7.564;2022-11-20T09:52:50;6.77;;;6.00;;
4646;SDS011;2336;47.822;7.564;2022-11-20T09:55:30;5.97;;;5.40;;
4646;SDS011;2336;47.822;7.564;2022-11-20T09:57:57;3.67;;;3.47;;
4646;SDS011;2336;47.822;7.564;2022-11-20T10:00:26;3.57;;;3.47;;
4646;SDS011;2336;47.822;7.564;2022-11-20T10:02:58;3.50;;;3.40;;
4646;SDS011;2336;47.822;7.564;2022-11-20T10:05:27;4.00;;;3.40;;
4646;SDS011;2336;47.822;7.564;2022-11-20T10:08:04;3.47;;;3.37;;
4646;SDS011;2336;47.822;7.564;2022-11-20T10:10:40;5.03;;;4.70;;
4646;SDS011;2336;47.822;7.564;2022-11-20T10:13:18;6.43;;;5.80;;
4646;SDS011;2336;47.822;7.564;2022-11-20T10:15:56;3.17;;;2.97;;
4646;SDS011;2336;47.822;7.564;2022-11-20T10:18:36;4.73;;;4.37;;
4646;SDS011;2336;47.822;7.564;2022-11-20T10:21:13;5.10;;;4.73;;
4646;SDS011;2336;47.822;7.564;2022-11-20T10:27:08;4.50;;;4.30;;
4646;SDS011;2336;47.822;7.564;2022-11-20T10:29:59;2.67;;;2.53;;
4646;SDS011;2336;47.822;7.564;2022-11-20T10:32:30;4.90;;;4.60;;
4646;SDS011;2336;47.822;7.564;2022-11-20T10:35:06;5.30;;;4.83;;
4646;SDS011;2336;47.822;7.564;2022-11-20T10:37:42;2.87;;;2.77;;
4646;SDS011;2336;47.822;7.564;2022-11-20T10:40:18;5.90;;;2.57;;
4646;SDS011;2336;47.822;7.564;2022-11-20T10:42:49;2.50;;;2.40;;
4646;SDS011;2336;47.822;7.564;2022-11-20T10:45:22;4.63;;;2.00;;
4646;SDS011;2336;47.822;7.564;2022-11-20T10:48:07;1.93;;;1.83;;
4646;SDS011;2336;47.822;7.564;2022-11-20T10:50:43;1.73;;;1.63;;
4646;SDS011;2336;47.822;7.564;2022-11-20T10:53:24;1.40;;;1.30;;
4646;SDS011;2336;47.822;7.564;2022-11-20T10:56:05;3.00;;;1.50;;
4646;SDS011;2336;47.822;7.564;2022-11-20T10:58:37;1.83;;;1.73;;
4646;SDS011;2336;47.822;7.564;2022-11-20T11:01:13;1.77;;;1.67;;
4646;SDS011;2336;47.822;7.564;2022-11-20T11:03:42;2.20;;;2.10;;
4646;SDS011;2336;47.822;7.564;2022-11-20T11:06:12;2.80;;;1.50;;
4646;SDS011;2336;47.822;7.564;2022-11-20T11:08:48;2.20;;;1.70;;
4646;SDS011;2336;47.822;7.564;2022-11-20T11:11:21;1.83;;;1.73;;
4646;SDS011;2336;47.822;7.564;2022-11-20T11:13:49;1.67;;;1.57;;
4646;SDS011;2336;47.822;7.564;2022-11-20T11:16:19;1.50;;;1.50;;
4646;SDS011;2336;47.822;7.564;2022-11-20T11:18:48;1.97;;;1.57;;
4646;SDS011;2336;47.822;7.564;2022-11-20T11:21:21;1.73;;;1.63;;
4646;SDS011;2336;47.822;7.564;2022-11-20T11:23:57;1.80;;;1.70;;
4646;SDS011;2336;47.822;7.564;2022-11-20T11:26:25;2.37;;;2.17;;
4646;SDS011;2336;47.822;7.564;2022-11-20T11:28:53;2.10;;;1.60;;
4646;SDS011;2336;47.822;7.564;2022-11-20T11:31:24;1.90;;;1.77;;
4646;SDS011;2336;47.822;7.564;2022-11-20T11:33:52;1.80;;;1.70;;
4646;SDS011;2336;47.822;7.564;2022-11-20T11:36:30;2.47;;;1.67;;
4646;SDS011;2336;47.822;7.564;2022-11-20T11:38:59;2.67;;;1.63;;
4646;SDS011;2336;47.822;7.564;2022-11-20T11:41:28;1.60;;;1.60;;
4646;SDS011;2336;47.822;7.564;2022-11-20T11:44:00;1.93;;;1.83;;
4646;SDS011;2336;47.822;7.564;2022-11-20T11:46:58;1.60;;;1.50;;
4646;SDS011;2336;47.822;7.564;2022-11-20T11:49:25;3.87;;;2.03;;
4646;SDS011;2336;47.822;7.564;2022-11-20T11:51:58;2.00;;;1.60;;
4646;SDS011;2336;47.822;7.564;2022-11-20T11:54:32;1.70;;;1.23;;
4646;SDS011;2336;47.822;7.564;2022-11-20T11:57:05;1.73;;;1.63;;
4646;SDS011;2336;47.822;7.564;2022-11-20T11:59:41;2.00;;;1.90;;
4646;SDS011;2336;47.822;7.564;2022-11-20T12:02:22;1.60;;;1.50;;
4646;SDS011;2336;47.822;7.564;2022-11-20T12:04:57;3.67;;;2.00;;
4646;SDS011;2336;47.822;7.564;2022-11-20T12:07:32;1.97;;;1.90;;
4646;SDS011;2336;47.822;7.564;2022-11-20T12:10:06;2.93;;;1.77;;
4646;SDS011;2336;47.822;7.564;2022-11-20T12:12:44;2.03;;;1.90;;
4646;SDS011;2336;47.822;7.564;2022-11-20T12:15:16;5.83;;;1.80;;
4646;SDS011;2336;47.822;7.564;2022-11-20T12:17:52;1.23;;;1.13;;
4646;SDS011;2336;47.822;7.564;2022-11-20T12:20:19;1.30;;;1.20;;
4646;SDS011;2336;47.822;7.564;2022-11-20T12:22:52;1.30;;;1.30;;
4646;SDS011;2336;47.822;7.564;2022-11-20T12:25:25;2.23;;;1.30;;
4646;SDS011;2336;47.822;7.564;2022-11-20T12:27:58;1.80;;;1.67;;
4646;SDS011;2336;47.822;7.564;2022-11-20T12:30:50;1.63;;;1.23;;
4646;SDS011;2336;47.822;7.564;2022-11-20T12:33:34;1.43;;;1.30;;
4646;SDS011;2336;47.822;7.564;2022-11-20T12:36:15;1.20;;;1.10;;
4646;SDS011;2336;47.822;7.564;2022-11-20T12:38:53;1.20;;;1.20;;
4646;SDS011;2336;47.822;7.564;2022-11-20T12:41:42;2.00;;;1.47;;
4646;SDS011;2336;47.822;7.564;2022-11-20T12:44:42;1.43;;;1.43;;
4646;SDS011;2336;47.822;7.564;2022-11-20T12:47:43;1.07;;;1.00;;
4646;SDS011;2336;47.822;7.564;2022-11-20T12:50:20;1.30;;;1.20;;
4646;SDS011;2336;47.822;7.564;2022-11-20T12:52:56;1.50;;;1.50;;
4646;SDS011;2336;47.822;7.564;2022-11-20T12:55:32;1.40;;;1.30;;
4646;SDS011;2336;47.822;7.564;2022-11-20T12:58:10;2.73;;;1.10;;
4646;SDS011;2336;47.822;7.564;2022-11-20T13:00:43;1.40;;;1.30;;
4646;SDS011;2336;47.822;7.564;2022-11-20T13:03:28;1.90;;;1.57;;
4646;SDS011;2336;47.822;7.564;2022-11-20T13:06:05;1.27;;;1.27;;
4646;SDS011;2336;47.822;7.564;2022-11-20T13:08:40;1.57;;;1.50;;
4646;SDS011;2336;47.822;7.564;2022-11-20T13:11:14;4.77;;;2.30;;
4646;SDS011;2336;47.822;7.564;2022-11-20T13:13:52;3.57;;;1.60;;
4646;SDS011;2336;47.822;7.564;2022-11-20T13:16:41;2.43;;;1.63;;
4646;SDS011;2336;47.822;7.564;2022-11-20T13:19:15;2.70;;;1.67;;
4646;SDS011;2336;47.822;7.564;2022-11-20T13:21:43;1.90;;;1.80;;
4646;SDS011;2336;47.822;7.564;2022-11-20T13:24:22;2.10;;;2.00;;
4646;SDS011;2336;47.822;7.564;2022-11-20T13:29:58;1.93;;;1.70;;
4646;SDS011;2336;47.822;7.564;2022-11-20T13:32:27;1.70;;;1.60;;
4646;SDS011;2336;47.822;7.564;2022-11-20T13:34:57;3.03;;;2.40;;
4646;SDS011;2336;47.822;7.564;2022-11-20T13:37:30;2.30;;;1.60;;
4646;SDS011;2336;47.822;7.564;2022-11-20T13:40:12;1.90;;;1.80;;
4646;SDS011;2336;47.822;7.564;2022-11-20T13:42:54;1.37;;;1.37;;
4646;SDS011;2336;47.822;7.564;2022-11-20T13:45:23;2.33;;;1.83;;
4646;SDS011;2336;47.822;7.564;2022-11-20T13:47:51;6.40;;;2.03;;
4646;SDS011;2336;47.822;7.564;2022-11-20T13:50:18;2.20;;;2.10;;
4646;SDS011;2336;47.822;7.564;2022-11-20T13:52:48;1.60;;;1.60;;
4646;SDS011;2336;47.822;7.564;2022-11-20T13:55:26;2.03;;;1.50;;
4646;SDS011;2336;47.822;7.564;2022-11-20T13:58:06;1.80;;;1.70;;
4646;SDS011;2336;47.822;7.564;2022-11-20T14:00:44;1.57;;;1.43;;
4646;SDS011;2336;47.822;7.564;2022-11-20T14:03:17;1.83;;;1.73;;
4646;SDS011;2336;47.822;7.564;2022-11-20T14:05:49;2.40;;;2.20;;
4646;SDS011;2336;47.822;7.564;2022-11-20T14:08:23;2.50;;;2.40;;
4646;SDS011;2336;47.822;7.564;2022-11-20T14:11:03;1.90;;;1.80;;
4646;SDS011;2336;47.822;7.564;2022-11-20T14:13:32;3.93;;;3.63;;
4646;SDS011;2336;47.822;7.564;2022-11-20T14:15:59;3.40;;;3.20;;
4646;SDS011;2336;47.822;7.564;2022-11-20T14:18:26;7.40;;;6.60;;
4646;SDS011;2336;47.822;7.564;2022-11-20T14:20:54;3.77;;;3.47;;
4646;SDS011;2336;47.822;7.564;2022-11-20T14:23:25;2.87;;;2.60;;
4646;SDS011;2336;47.822;7.564;2022-11-20T14:25:53;2.33;;;2.13;;
4646;SDS011;2336;47.822;7.564;2022-11-20T14:28:21;1.83;;;1.73;;
4646;SDS011;2336;47.822;7.564;2022-11-20T14:30:53;3.40;;;1.93;;
4646;SDS011;2336;47.822;7.564;2022-11-20T14:33:21;2.17;;;2.07;;
4646;SDS011;2336;47.822;7.564;2022-11-20T14:35:50;5.87;;;5.47;;
4646;SDS011;2336;47.822;7.564;2022-11-20T14:38:20;3.70;;;3.30;;
4646;SDS011;2336;47.822;7.564;2022-11-20T14:40:50;3.17;;;2.53;;
4646;SDS011;2336;47.822;7.564;2022-11-20T14:43:19;7.33;;;2.10;;
4646;SDS011;2336;47.822;7.564;2022-11-20T14:45:49;2.63;;;2.10;;
4646;SDS011;2336;47.822;7.564;2022-11-20T14:48:24;2.83;;;2.60;;
4646;SDS011;2336;47.822;7.564;2022-11-20T14:50:55;4.53;;;2.47;;
4646;SDS011;2336;47.822;7.564;2022-11-20T14:53:22;2.20;;;1.80;;
4646;SDS011;2336;47.822;7.564;2022-11-20T14:55:54;2.33;;;2.20;;
4646;SDS011;2336;47.822;7.564;2022-11-20T14:58:22;2.10;;;2.00;;
4646;SDS011;2336;47.822;7.564;2022-11-20T15:00:53;2.10;;;2.00;;
4646;SDS011;2336;47.822;7.564;2022-11-20T15:03:22;2.80;;;2.47;;
4646;SDS011;2336;47.822;7.564;2022-11-20T15:05:50;6.23;;;5.20;;
4646;SDS011;2336;47.822;7.564;2022-11-20T15:08:17;5.10;;;4.70;;
4646;SDS011;2336;47.822;7.564;2022-11-20T15:10:45;3.27;;;3.00;;
4646;SDS011;2336;47.822;7.564;2022-11-20T15:13:15;2.90;;;2.70;;
4646;SDS011;2336;47.822;7.564;2022-11-20T15:15:47;3.80;;;2.50;;
4646;SDS011;2336;47.822;7.564;2022-11-20T15:18:15;1.30;;;1.30;;
4646;SDS011;2336;47.822;7.564;2022-11-20T15:20:46;3.70;;;1.80;;
4646;SDS011;2336;47.822;7.564;2022-11-20T15:23:14;2.80;;;2.70;;
4646;SDS011;2336;47.822;7.564;2022-11-20T15:25:43;4.20;;;3.80;;
4646;SDS011;2336;47.822;7.564;2022-11-20T15:28:13;3.33;;;3.13;;
4646;SDS011;2336;47.822;7.564;2022-11-20T15:30:44;3.27;;;3.07;;
4646;SDS011;2336;47.822;7.564;2022-11-20T15:33:11;1.70;;;1.70;;
4646;SDS011;2336;47.822;7.564;2022-11-20T15:35:38;2.20;;;2.10;;
4646;SDS011;2336;47.822;7.564;2022-11-20T15:38:06;1.63;;;1.53;;
4646;SDS011;2336;47.822;7.564;2022-11-20T15:40:33;1.93;;;1.83;;
4646;SDS011;2336;47.822;7.564;2022-11-20T15:43:00;1.43;;;1.43;;